createdAt,value
2017-07-18T00:02:01.094Z,77.80
2017-07-18T00:04:30.977Z,78.00
2017-07-18T00:06:59.245Z,78.00
2017-07-18T00:09:27.521Z,78.00
2017-07-18T00:11:55.757Z,78.30
2017-07-18T00:14:25.162Z,78.30
2017-07-18T00:16:53.494Z,78.30
2017-07-18T00:19:22.501Z,79.00
2017-07-18T00:21:51.516Z,78.70
2017-07-18T00:24:20.481Z,78.00
2017-07-18T00:26:48.736Z,77.90
2017-07-18T00:29:17.754Z,77.90
2017-07-18T00:31:46.018Z,77.90
2017-07-18T00:34:15.035Z,78.30
2017-07-18T00:36:43.303Z,78.30
2017-07-18T00:39:12.326Z,78.20
2017-07-18T00:41:40.558Z,78.80
2017-07-18T00:44:09.597Z,78.00
2017-07-18T00:46:37.865Z,78.00
2017-07-18T00:49:06.855Z,78.80
2017-07-18T00:51:35.128Z,78.80
2017-07-18T00:54:03.368Z,78.60
2017-07-18T00:56:31.644Z,78.40
2017-07-18T00:58:59.914Z,78.40
2017-07-18T01:01:28.169Z,78.30
2017-07-18T01:03:56.467Z,78.00
2017-07-18T01:06:24.694Z,78.20
2017-07-18T01:08:53.035Z,78.30
2017-07-18T01:11:23.637Z,78.30
2017-07-18T01:13:51.899Z,78.30
2017-07-18T01:16:20.119Z,78.40
2017-07-18T01:18:49.596Z,79.00
2017-07-18T01:21:18.625Z,78.90
2017-07-18T01:23:47.654Z,80.00
2017-07-18T01:26:15.875Z,79.40
2017-07-18T01:28:44.163Z,79.40
2017-07-18T01:31:12.424Z,79.60
2017-07-18T01:33:40.687Z,79.40
2017-07-18T01:36:09.746Z,79.60
2017-07-18T01:38:38.038Z,79.50
2017-07-18T01:41:06.310Z,79.80
2017-07-18T01:43:35.355Z,80.00
2017-07-18T01:46:03.624Z,80.00
2017-07-18T01:48:31.893Z,80.10
2017-07-18T01:51:00.186Z,80.10
2017-07-18T01:53:28.455Z,79.60
2017-07-18T01:55:56.725Z,78.90
2017-07-18T01:58:25.024Z,78.80
2017-07-18T02:00:53.298Z,78.40
2017-07-18T02:03:22.346Z,78.00
2017-07-18T02:05:51.145Z,78.00
2017-07-18T02:08:19.532Z,77.80
2017-07-18T02:10:47.787Z,77.20
2017-07-18T02:13:16.012Z,77.00
2017-07-18T02:15:44.274Z,76.60
2017-07-18T02:18:12.516Z,76.20
2017-07-18T02:20:41.506Z,75.60
2017-07-18T02:23:09.808Z,75.60
2017-07-18T02:25:38.802Z,75.60
2017-07-18T02:28:08.110Z,76.00
2017-07-18T02:30:36.357Z,76.00
2017-07-18T02:33:04.586Z,75.90
2017-07-18T02:35:32.857Z,76.00
2017-07-18T02:38:01.133Z,76.10
2017-07-18T02:40:29.362Z,76.30
2017-07-18T02:42:57.591Z,76.00
2017-07-18T02:45:26.170Z,76.40
2017-07-18T02:47:54.419Z,76.50
2017-07-18T02:50:22.673Z,76.90
2017-07-18T02:52:50.943Z,76.50
2017-07-18T02:55:19.451Z,76.30
2017-07-18T02:57:47.707Z,76.60
2017-07-18T03:00:15.944Z,76.60
2017-07-18T03:02:45.001Z,76.30
2017-07-18T03:05:13.277Z,76.20
2017-07-18T03:07:41.530Z,76.30
2017-07-18T03:10:10.547Z,76.30
2017-07-18T03:12:38.799Z,75.50
2017-07-18T03:15:07.215Z,75.30
2017-07-18T03:17:35.436Z,75.40
2017-07-18T03:20:04.479Z,76.20
2017-07-18T03:22:32.716Z,75.50
2017-07-18T03:25:01.775Z,75.60
2017-07-18T03:27:30.043Z,75.60
2017-07-18T03:29:58.307Z,75.40
2017-07-18T03:32:27.465Z,75.50
2017-07-18T03:34:55.711Z,75.30
2017-07-18T03:37:23.966Z,75.00
2017-07-18T03:39:52.238Z,74.70
2017-07-18T03:42:20.738Z,74.90
2017-07-18T03:44:48.980Z,75.70
2017-07-18T03:47:17.274Z,75.00
2017-07-18T03:49:45.555Z,74.90
2017-07-18T03:52:13.787Z,75.00
2017-07-18T03:54:42.811Z,74.90
2017-07-18T03:57:11.117Z,74.90
2017-07-18T03:59:39.398Z,75.00
2017-07-18T04:02:07.631Z,74.80
2017-07-18T04:04:36.627Z,74.20
2017-07-18T04:07:04.882Z,74.20
2017-07-18T04:09:33.917Z,74.10
2017-07-18T04:12:02.175Z,74.10
2017-07-18T04:14:30.416Z,74.10
2017-07-18T04:16:58.660Z,74.10
2017-07-18T04:19:27.666Z,74.20
2017-07-18T04:21:55.925Z,73.80
2017-07-18T04:24:24.156Z,73.50
2017-07-18T04:26:53.177Z,73.80
2017-07-18T04:29:21.437Z,73.10
2017-07-18T04:31:50.466Z,67.10
2017-07-18T04:34:18.720Z,67.00
2017-07-18T04:36:46.985Z,64.20
2017-07-18T04:39:15.972Z,58.20
2017-07-18T04:41:45.007Z,56.50
2017-07-18T04:44:13.266Z,56.40
2017-07-18T04:46:41.854Z,53.20
2017-07-18T04:49:10.123Z,51.20
2017-07-18T04:51:38.382Z,50.50
2017-07-18T04:54:07.406Z,46.90
2017-07-18T04:56:35.627Z,46.90
2017-07-18T04:59:03.916Z,46.40
2017-07-18T05:01:32.134Z,44.60
2017-07-18T05:04:00.389Z,44.50
2017-07-18T05:06:28.664Z,42.50
2017-07-18T05:08:57.086Z,41.00
2017-07-18T05:11:25.306Z,39.50
2017-07-18T05:13:54.344Z,38.30
2017-07-18T05:16:22.612Z,38.10
2017-07-18T05:18:50.906Z,37.70
2017-07-18T05:21:19.141Z,38.50
2017-07-18T05:23:47.374Z,39.20
2017-07-18T05:26:15.618Z,40.00
2017-07-18T05:28:43.903Z,39.90
2017-07-18T05:31:12.146Z,41.90
2017-07-18T05:33:41.137Z,47.10
2017-07-18T05:36:10.197Z,49.80
2017-07-18T05:38:38.462Z,49.80
2017-07-18T05:41:06.697Z,50.90
2017-07-18T05:43:35.003Z,52.60
2017-07-18T05:46:03.236Z,54.10
2017-07-18T05:48:32.251Z,57.70
2017-07-18T05:51:01.297Z,58.20
2017-07-18T05:53:29.549Z,58.20
2017-07-18T05:55:57.790Z,59.30
2017-07-18T05:58:26.791Z,60.40
2017-07-18T06:00:55.077Z,60.40
2017-07-18T06:03:23.319Z,61.30
2017-07-18T06:05:51.574Z,62.00
2017-07-18T06:08:19.827Z,62.30
2017-07-18T06:10:48.066Z,62.30
2017-07-18T06:13:17.138Z,62.70
2017-07-18T06:15:45.420Z,62.70
2017-07-18T06:18:13.720Z,63.30
2017-07-18T06:20:42.725Z,63.40
2017-07-18T06:23:10.983Z,63.40
2017-07-18T06:25:39.238Z,64.10
2017-07-18T06:28:07.505Z,63.20
2017-07-18T06:30:35.746Z,62.40
2017-07-18T06:33:04.006Z,62.80
2017-07-18T06:35:33.043Z,61.90
2017-07-18T06:38:01.272Z,61.90
2017-07-18T06:40:30.288Z,61.60
2017-07-18T06:42:58.516Z,61.50
2017-07-18T06:45:26.753Z,62.00
2017-07-18T06:47:54.996Z,61.10
2017-07-18T06:50:24.003Z,59.00
2017-07-18T06:52:52.324Z,58.90
2017-07-18T06:55:20.595Z,59.30
2017-07-18T06:57:48.818Z,59.30
2017-07-18T07:00:17.899Z,58.60
2017-07-18T07:02:46.488Z,58.70
2017-07-18T07:05:15.498Z,58.60
2017-07-18T07:07:44.543Z,58.00
2017-07-18T07:10:12.785Z,58.00
2017-07-18T07:12:41.068Z,58.40
2017-07-18T07:15:09.295Z,58.20
2017-07-18T07:17:37.554Z,58.90
2017-07-18T07:20:05.839Z,58.10
2017-07-18T07:22:34.062Z,57.20
2017-07-18T07:25:02.314Z,57.00
2017-07-18T07:27:30.575Z,57.40
2017-07-18T07:29:58.834Z,57.50
2017-07-18T07:32:27.127Z,58.10
2017-07-18T07:34:55.390Z,57.30
2017-07-18T07:37:23.638Z,57.30
2017-07-18T07:39:51.896Z,56.00
2017-07-18T07:42:20.941Z,54.40
2017-07-18T07:44:49.831Z,54.40
2017-07-18T07:47:18.079Z,54.90
2017-07-18T07:49:46.329Z,55.00
2017-07-18T07:52:15.341Z,54.00
2017-07-18T07:54:43.583Z,54.00
2017-07-18T07:57:11.836Z,54.10
2017-07-18T07:59:40.079Z,55.10
2017-07-18T08:02:08.324Z,54.20
2017-07-18T08:04:37.374Z,54.50
2017-07-18T08:07:05.598Z,53.80
2017-07-18T08:09:34.600Z,53.00
2017-07-18T08:12:03.655Z,52.70
2017-07-18T08:14:31.955Z,52.70
2017-07-18T08:17:00.973Z,50.40
2017-07-18T08:19:29.226Z,50.60
2017-07-18T08:21:57.503Z,51.60
2017-07-18T08:24:25.740Z,51.10
2017-07-18T08:26:53.993Z,50.20
2017-07-18T08:29:22.256Z,49.70
2017-07-18T08:31:51.277Z,50.90
2017-07-18T08:34:19.534Z,50.90
2017-07-18T08:36:47.800Z,50.30
2017-07-18T08:39:16.056Z,48.90
2017-07-18T08:41:44.326Z,49.40
2017-07-18T08:44:12.589Z,49.70
2017-07-18T08:46:40.856Z,50.80
2017-07-18T08:49:09.087Z,49.50
2017-07-18T08:51:38.110Z,50.70
2017-07-18T08:54:06.415Z,50.70
2017-07-18T08:56:34.676Z,48.70
2017-07-18T08:59:02.914Z,49.50
2017-07-18T09:01:31.157Z,48.00
2017-07-18T09:03:59.398Z,47.60
2017-07-18T09:06:27.641Z,47.70
2017-07-18T09:08:55.905Z,48.80
2017-07-18T09:11:24.168Z,47.60
2017-07-18T09:13:52.404Z,46.70
2017-07-18T09:16:20.641Z,47.10
2017-07-18T09:18:48.905Z,47.40
2017-07-18T09:21:17.922Z,46.50
2017-07-18T09:23:47.399Z,46.00
2017-07-18T09:26:16.563Z,46.00
2017-07-18T09:28:44.830Z,45.80
2017-07-18T09:31:13.040Z,45.60
2017-07-18T09:33:41.313Z,47.20
2017-07-18T09:36:09.627Z,45.90
2017-07-18T09:38:37.836Z,47.00
2017-07-18T09:41:06.094Z,45.80
2017-07-18T09:43:34.320Z,44.80
2017-07-18T09:46:02.594Z,43.90
2017-07-18T09:48:30.843Z,42.10
2017-07-18T09:50:59.071Z,43.00
2017-07-18T09:53:28.128Z,43.60
2017-07-18T09:55:56.703Z,43.10
2017-07-18T09:58:24.992Z,42.10
2017-07-18T10:00:53.231Z,43.60
2017-07-18T10:03:21.515Z,41.50
2017-07-18T10:05:49.766Z,40.00
2017-07-18T10:08:18.589Z,39.90
2017-07-18T10:10:46.822Z,40.70
2017-07-18T10:13:15.119Z,42.90
2017-07-18T10:15:43.377Z,41.30
2017-07-18T10:18:12.394Z,40.80
2017-07-18T10:20:40.672Z,40.00
2017-07-18T10:23:09.719Z,41.10
2017-07-18T10:25:38.035Z,41.10
2017-07-18T10:28:07.077Z,40.20
2017-07-18T10:30:35.292Z,40.20
2017-07-18T10:33:04.367Z,38.80
2017-07-18T10:35:33.458Z,38.40
2017-07-18T10:38:01.694Z,38.40
2017-07-18T10:40:29.941Z,35.90
2017-07-18T10:42:58.198Z,38.60
2017-07-18T10:45:27.607Z,38.00
2017-07-18T10:47:55.809Z,38.90
2017-07-18T10:50:24.161Z,38.50
2017-07-18T10:52:52.465Z,39.80
2017-07-18T10:55:20.701Z,41.40
2017-07-18T10:57:48.977Z,40.40
2017-07-18T11:00:17.226Z,40.00
2017-07-18T11:02:45.509Z,41.90
2017-07-18T11:05:13.795Z,41.20
2017-07-18T11:07:42.876Z,41.20
2017-07-18T11:10:11.135Z,41.30
2017-07-18T11:12:39.394Z,41.90
2017-07-18T11:15:07.659Z,40.80
2017-07-18T11:17:35.989Z,38.70
2017-07-18T11:20:04.270Z,39.70
2017-07-18T11:22:32.514Z,38.60
2017-07-18T11:25:00.771Z,36.60
2017-07-18T11:27:28.996Z,37.30
2017-07-18T11:29:57.279Z,36.60
2017-07-18T11:32:25.481Z,37.20
2017-07-18T11:34:53.739Z,37.60
2017-07-18T11:37:22.034Z,37.50
2017-07-18T11:39:50.370Z,38.70
2017-07-18T11:42:18.593Z,37.70
2017-07-18T11:44:46.821Z,37.70
2017-07-18T11:47:15.077Z,40.10
2017-07-18T11:49:44.193Z,36.00
2017-07-18T11:52:12.476Z,36.00
2017-07-18T11:54:41.490Z,36.20
2017-07-18T11:57:09.764Z,36.20
2017-07-18T11:59:38.050Z,36.50
2017-07-18T12:02:06.298Z,36.40
2017-07-18T12:04:34.580Z,36.40
2017-07-18T12:07:02.872Z,36.20
2017-07-18T12:09:31.158Z,38.60
2017-07-18T12:11:59.504Z,37.60
2017-07-18T12:14:30.725Z,37.60
2017-07-18T12:16:58.971Z,38.20
2017-07-18T12:19:28.017Z,37.20
2017-07-18T12:21:57.066Z,37.30
2017-07-18T12:24:25.325Z,37.30
2017-07-18T12:26:53.563Z,38.20
2017-07-18T12:29:21.838Z,35.80
2017-07-18T12:31:50.875Z,37.00
2017-07-18T12:34:19.146Z,36.80
2017-07-18T12:36:47.403Z,38.10
2017-07-18T12:39:15.678Z,38.00
2017-07-18T12:41:44.630Z,37.80
2017-07-18T12:44:12.905Z,40.40
2017-07-18T12:46:41.148Z,39.20
2017-07-18T12:49:09.431Z,38.70
2017-07-18T12:51:37.708Z,39.50
2017-07-18T12:54:05.974Z,39.70
2017-07-18T12:56:34.235Z,39.50
2017-07-18T12:59:02.496Z,39.70
2017-07-18T13:01:31.489Z,39.50
2017-07-18T13:03:59.751Z,39.50
2017-07-18T13:06:28.746Z,38.70
2017-07-18T13:08:57.924Z,38.60
2017-07-18T13:11:26.187Z,39.50
2017-07-18T13:13:54.451Z,37.90
2017-07-18T13:16:22.700Z,38.70
2017-07-18T13:18:51.011Z,39.20
2017-07-18T13:21:19.278Z,39.70
2017-07-18T13:23:47.510Z,39.40
2017-07-18T13:26:16.537Z,39.30
2017-07-18T13:28:44.806Z,39.30
2017-07-18T13:31:13.800Z,38.90
2017-07-18T13:33:42.125Z,38.90
2017-07-18T13:36:10.429Z,40.30
2017-07-18T13:38:39.437Z,38.50
2017-07-18T13:41:08.441Z,39.60
2017-07-18T13:43:36.702Z,39.60
2017-07-18T13:46:05.713Z,38.70
2017-07-18T13:48:33.976Z,38.80
2017-07-18T13:51:02.261Z,37.90
2017-07-18T13:53:30.503Z,40.70
2017-07-18T13:55:58.853Z,39.60
2017-07-18T13:58:27.094Z,38.70
2017-07-18T14:00:55.350Z,39.30
2017-07-18T14:03:23.583Z,38.00
2017-07-18T14:05:51.897Z,38.30
2017-07-18T14:08:20.232Z,38.40
2017-07-18T14:10:48.492Z,38.80
2017-07-18T14:13:16.740Z,40.30
2017-07-18T14:15:45.025Z,40.40
2017-07-18T14:18:14.156Z,38.80
2017-07-18T14:20:42.398Z,38.80
2017-07-18T14:23:11.402Z,39.60
2017-07-18T14:25:39.672Z,39.50
2017-07-18T14:28:09.705Z,38.40
2017-07-18T14:30:37.966Z,38.30
2017-07-18T14:33:06.215Z,38.40
2017-07-18T14:35:35.104Z,39.40
2017-07-18T14:38:03.353Z,38.20
2017-07-18T14:40:31.578Z,38.80
2017-07-18T14:43:00.757Z,38.40
2017-07-18T14:45:29.009Z,38.30
2017-07-18T14:47:57.312Z,38.70
2017-07-18T14:50:25.541Z,39.30
2017-07-18T14:52:53.824Z,39.50
2017-07-18T14:55:22.046Z,39.60
2017-07-18T14:57:51.046Z,39.70
2017-07-18T15:00:20.114Z,41.70
2017-07-18T15:02:49.001Z,41.40
2017-07-18T15:05:17.245Z,39.10
2017-07-18T15:07:45.567Z,40.60
2017-07-18T15:10:13.831Z,40.50
2017-07-18T15:12:42.085Z,38.10
2017-07-18T15:15:10.341Z,37.20
2017-07-18T15:17:38.859Z,38.00
2017-07-18T15:20:07.135Z,38.50
2017-07-18T15:22:35.362Z,38.60
2017-07-18T15:25:04.378Z,39.10
2017-07-18T15:27:32.643Z,39.10
2017-07-18T15:30:00.905Z,39.30
2017-07-18T15:32:29.953Z,38.30
2017-07-18T15:34:58.206Z,38.20
2017-07-18T15:37:26.495Z,38.20
2017-07-18T15:39:54.780Z,38.70
2017-07-18T15:42:23.025Z,39.20
2017-07-18T15:44:51.266Z,39.10
2017-07-18T15:47:19.531Z,38.20
2017-07-18T15:49:47.803Z,38.40
2017-07-18T15:52:16.687Z,38.30
2017-07-18T15:54:44.950Z,40.10
2017-07-18T15:57:13.195Z,39.10
2017-07-18T15:59:41.436Z,38.50
2017-07-18T16:02:09.737Z,39.80
2017-07-18T16:04:38.003Z,39.50
2017-07-18T16:07:06.261Z,39.30
2017-07-18T16:09:34.511Z,39.00
2017-07-18T16:12:02.755Z,38.80
2017-07-18T16:14:31.756Z,38.90
2017-07-18T16:17:00.033Z,38.80
2017-07-18T16:19:29.073Z,39.90
2017-07-18T16:21:57.350Z,39.80
2017-07-18T16:24:25.621Z,41.20
2017-07-18T16:26:53.877Z,38.80
2017-07-18T16:29:23.091Z,38.70
2017-07-18T16:31:51.308Z,38.70
2017-07-18T16:34:19.631Z,39.00
2017-07-18T16:36:47.903Z,39.30
2017-07-18T16:39:16.240Z,40.20
2017-07-18T16:41:44.565Z,39.00
2017-07-18T16:44:12.835Z,40.50
2017-07-18T16:46:41.816Z,38.80
2017-07-18T16:49:10.857Z,39.20
2017-07-18T16:51:39.143Z,39.10
2017-07-18T16:54:07.399Z,39.70
2017-07-18T16:56:35.689Z,39.20
2017-07-18T16:59:04.011Z,39.40
2017-07-18T17:01:33.030Z,39.60
2017-07-18T17:04:01.331Z,39.50
2017-07-18T17:06:29.565Z,39.80
2017-07-18T17:08:58.608Z,40.40
2017-07-18T17:11:27.372Z,40.30
2017-07-18T17:13:55.771Z,40.40
2017-07-18T17:16:24.031Z,39.50
2017-07-18T17:18:52.839Z,39.70
2017-07-18T17:21:21.169Z,39.20
2017-07-18T17:23:49.490Z,38.60
2017-07-18T17:26:18.476Z,39.20
2017-07-18T17:28:46.810Z,39.20
2017-07-18T17:31:15.140Z,39.30
2017-07-18T17:33:44.367Z,39.60
2017-07-18T17:36:12.607Z,39.60
2017-07-18T17:38:40.861Z,41.00
2017-07-18T17:41:09.905Z,40.90
2017-07-18T17:43:38.163Z,40.90
2017-07-18T17:46:06.480Z,40.20
2017-07-18T17:48:34.710Z,42.20
2017-07-18T17:51:03.437Z,41.30
2017-07-18T17:53:32.423Z,40.20
2017-07-18T17:56:00.712Z,39.70
2017-07-18T17:58:29.004Z,41.90
2017-07-18T18:00:57.336Z,40.70
2017-07-18T18:03:25.574Z,40.60
2017-07-18T18:05:54.566Z,41.00
2017-07-18T18:08:23.624Z,41.40
2017-07-18T18:10:51.962Z,41.40
2017-07-18T18:13:20.991Z,41.40
2017-07-18T18:15:49.273Z,41.40
2017-07-18T18:18:17.566Z,41.20
2017-07-18T18:20:45.841Z,41.60
2017-07-18T18:23:14.291Z,43.80
2017-07-18T18:25:42.526Z,41.60
2017-07-18T18:28:10.789Z,44.10
2017-07-18T18:30:39.176Z,44.30
2017-07-18T18:33:08.215Z,44.80
2017-07-18T18:35:36.463Z,44.70
2017-07-18T18:38:04.815Z,45.30
2017-07-18T18:40:33.073Z,45.70
2017-07-18T18:43:01.375Z,44.60
2017-07-18T18:45:29.665Z,43.70
2017-07-18T18:47:58.722Z,45.30
2017-07-18T18:50:26.959Z,45.30
2017-07-18T18:52:55.230Z,46.40
2017-07-18T18:55:24.283Z,46.80
2017-07-18T18:57:52.576Z,46.80
2017-07-18T19:00:21.688Z,46.30
2017-07-18T19:02:49.949Z,46.20
2017-07-18T19:05:18.201Z,47.90
2017-07-18T19:07:46.493Z,48.90
2017-07-18T19:10:14.748Z,49.00
2017-07-18T19:12:43.006Z,48.30
2017-07-18T19:15:11.264Z,48.70
2017-07-18T19:17:39.539Z,47.80
2017-07-18T19:20:08.460Z,47.10
2017-07-18T19:22:37.735Z,46.90
2017-07-18T19:25:06.342Z,47.70
2017-07-18T19:27:34.613Z,48.30
2017-07-18T19:30:02.859Z,48.00
2017-07-18T19:32:31.178Z,48.40
2017-07-18T19:34:59.400Z,48.90
2017-07-18T19:37:27.698Z,48.60
2017-07-18T19:39:56.786Z,49.40
2017-07-18T19:42:25.821Z,49.60
2017-07-18T19:44:54.084Z,49.40
2017-07-18T19:47:22.347Z,49.90
2017-07-18T19:49:51.489Z,50.40
2017-07-18T19:52:19.725Z,50.40
2017-07-18T19:54:48.036Z,50.20
2017-07-18T19:57:17.263Z,50.60
2017-07-18T19:59:45.565Z,51.20
2017-07-18T20:02:13.896Z,51.40
2017-07-18T20:04:42.239Z,51.20
2017-07-18T20:07:10.534Z,51.30
2017-07-18T20:09:38.856Z,51.30
2017-07-18T20:12:07.117Z,51.70
2017-07-18T20:14:35.386Z,52.60
2017-07-18T20:17:03.792Z,52.60
2017-07-18T20:19:32.313Z,53.10
2017-07-18T20:22:01.639Z,53.00
2017-07-18T20:24:29.923Z,52.40
2017-07-18T20:26:58.977Z,52.50
2017-07-18T20:29:27.754Z,52.40
2017-07-18T20:31:56.919Z,53.30
2017-07-18T20:34:25.456Z,53.20
2017-07-18T20:36:53.708Z,53.70
2017-07-18T20:39:22.020Z,54.70
2017-07-18T20:41:51.030Z,56.00
2017-07-18T20:44:19.300Z,56.00
2017-07-18T20:46:47.624Z,56.30
2017-07-18T20:49:16.758Z,57.80
2017-07-18T20:51:45.770Z,57.50
2017-07-18T20:54:14.572Z,57.40
2017-07-18T20:56:42.840Z,58.00
2017-07-18T20:59:11.129Z,58.80
2017-07-18T21:01:39.375Z,57.10
2017-07-18T21:04:07.640Z,59.30
2017-07-18T21:06:36.554Z,60.10
2017-07-18T21:09:05.550Z,62.10
2017-07-18T21:11:33.834Z,62.00
2017-07-18T21:14:02.687Z,62.50
2017-07-18T21:16:32.486Z,63.50
2017-07-18T21:19:00.758Z,63.50
2017-07-18T21:21:29.848Z,62.90
2017-07-18T21:23:58.149Z,62.80
2017-07-18T21:26:26.395Z,61.90
2017-07-18T21:28:55.721Z,64.30
2017-07-18T21:31:24.377Z,63.10
2017-07-18T21:33:52.607Z,63.90
2017-07-18T21:36:21.622Z,63.40
2017-07-18T21:38:49.901Z,63.40
2017-07-18T21:41:18.158Z,64.30
2017-07-18T21:43:46.704Z,64.80
2017-07-18T21:46:14.951Z,64.30
2017-07-18T21:48:43.249Z,62.60
2017-07-18T21:51:11.572Z,64.20
2017-07-18T21:53:40.571Z,62.80
2017-07-18T21:56:08.836Z,63.00
2017-07-18T21:58:37.898Z,61.80
2017-07-18T22:01:06.126Z,61.60
2017-07-18T22:03:36.021Z,61.20
2017-07-18T22:06:04.303Z,61.20
2017-07-18T22:08:33.434Z,60.60
2017-07-18T22:11:02.232Z,60.60
2017-07-18T22:13:30.485Z,60.40
2017-07-18T22:15:58.926Z,58.60
2017-07-18T22:18:27.157Z,59.30
2017-07-18T22:20:55.411Z,58.40
2017-07-18T22:23:23.638Z,58.70
2017-07-18T22:25:51.897Z,59.40
2017-07-18T22:28:20.189Z,59.30
2017-07-18T22:30:48.447Z,59.10
2017-07-18T22:33:16.710Z,59.20
2017-07-18T22:35:44.954Z,58.40
2017-07-18T22:38:13.996Z,58.70
2017-07-18T22:40:42.242Z,58.70
2017-07-18T22:43:11.286Z,58.00
2017-07-18T22:45:39.542Z,58.00
2017-07-18T22:48:07.825Z,59.20
2017-07-18T22:50:36.890Z,60.00
2017-07-18T22:53:05.156Z,59.50
2017-07-18T22:55:34.171Z,59.30
2017-07-18T22:58:02.426Z,59.30
2017-07-18T23:00:30.688Z,59.30
2017-07-18T23:02:58.989Z,59.30
2017-07-18T23:05:27.266Z,60.20
2017-07-18T23:07:56.415Z,59.80
2017-07-18T23:10:24.657Z,60.20
2017-07-18T23:12:53.702Z,60.10
2017-07-18T23:15:22.097Z,60.60
2017-07-18T23:17:51.082Z,61.00
2017-07-18T23:20:20.121Z,60.40
2017-07-18T23:22:48.378Z,60.30
2017-07-18T23:25:16.667Z,60.40
2017-07-18T23:27:44.933Z,60.00
2017-07-18T23:30:13.190Z,59.80
2017-07-18T23:32:42.207Z,60.30
2017-07-18T23:35:10.477Z,60.30
2017-07-18T23:37:39.475Z,60.20
2017-07-18T23:40:07.746Z,60.20
2017-07-18T23:42:36.005Z,60.70
2017-07-18T23:45:05.039Z,60.50
2017-07-18T23:47:33.284Z,60.30
2017-07-18T23:50:01.525Z,61.10
2017-07-18T23:52:29.773Z,60.30
2017-07-18T23:54:58.790Z,60.00
2017-07-18T23:57:27.075Z,60.00
2017-07-18T23:59:55.307Z,59.80
